sensor_id;sensor_type;location;lat;lon;timestamp;pressure;altitude;pressure_sealevel;temperature;humidity
36062;BME280;22123;52.412;20.970;2024-01-30T00:01:57;102420.06;;;-1.40;100.00
36062;BME280;22123;52.412;20.970;2024-01-30T00:04:23;102405.31;;;-1.47;100.00
36062;BME280;22123;52.412;20.970;2024-01-30T00:06:50;102451.25;;;-1.23;100.00
36062;BME280;22123;52.412;20.970;2024-01-30T00:09:16;102460.88;;;-1.20;100.00
36062;BME280;22123;52.412;20.970;2024-01-30T00:11:42;102401.06;;;-1.52;100.00
36062;BME280;22123;52.412;20.970;2024-01-30T00:14:08;102408.91;;;-1.49;100.00
36062;BME280;22123;52.412;20.970;2024-01-30T00:16:34;102408.13;;;-1.53;100.00
36062;BME280;22123;52.412;20.970;2024-01-30T00:19:00;102427.13;;;-1.40;100.00
36062;BME280;22123;52.412;20.970;2024-01-30T00:21:26;102443.66;;;-1.33;100.00
36062;BME280;22123;52.412;20.970;2024-01-30T00:23:52;102439.50;;;-1.42;100.00
36062;BME280;22123;52.412;20.970;2024-01-30T00:26:17;102402.06;;;-1.55;100.00
36062;BME280;22123;52.412;20.970;2024-01-30T00:28:43;102457.50;;;-1.25;100.00
36062;BME280;22123;52.412;20.970;2024-01-30T00:31:09;102447.28;;;-1.36;100.00
36062;BME280;22123;52.412;20.970;2024-01-30T00:33:35;102459.44;;;-1.30;100.00
36062;BME280;22123;52.412;20.970;2024-01-30T00:36:01;102384.38;;;-1.83;100.00
36062;BME280;22123;52.412;20.970;2024-01-30T00:38:27;102427.81;;;-1.63;100.00
36062;BME280;22123;52.412;20.970;2024-01-30T00:40:53;102459.03;;;-1.48;100.00
36062;BME280;22123;52.412;20.970;2024-01-30T00:43:19;102473.03;;;-1.44;100.00
36062;BME280;22123;52.412;20.970;2024-01-30T00:45:45;102479.38;;;-1.50;100.00
36062;BME280;22123;52.412;20.970;2024-01-30T00:48:11;102405.00;;;-1.97;100.00
36062;BME280;22123;52.412;20.970;2024-01-30T00:50:37;102423.25;;;-1.88;100.00
36062;BME280;22123;52.412;20.970;2024-01-30T00:53:02;102421.75;;;-1.97;100.00
36062;BME280;22123;52.412;20.970;2024-01-30T00:55:28;102473.75;;;-1.69;100.00
36062;BME280;22123;52.412;20.970;2024-01-30T00:57:54;102436.59;;;-1.94;100.00
36062;BME280;22123;52.412;20.970;2024-01-30T01:00:20;102456.59;;;-1.84;100.00
36062;BME280;22123;52.412;20.970;2024-01-30T01:02:46;102411.81;;;-2.20;100.00
36062;BME280;22123;52.412;20.970;2024-01-30T01:05:12;102416.97;;;-2.15;100.00
36062;BME280;22123;52.412;20.970;2024-01-30T01:07:38;102415.34;;;-2.21;100.00
36062;BME280;22123;52.412;20.970;2024-01-30T01:10:04;102323.59;;;-2.75;100.00
36062;BME280;22123;52.412;20.970;2024-01-30T01:12:30;102427.47;;;-2.14;100.00
36062;BME280;22123;52.412;20.970;2024-01-30T01:14:56;102418.16;;;-2.27;100.00
36062;BME280;22123;52.412;20.970;2024-01-30T01:17:22;102431.28;;;-2.24;100.00
36062;BME280;22123;52.412;20.970;2024-01-30T01:19:48;102420.25;;;-2.40;100.00
36062;BME280;22123;52.412;20.970;2024-01-30T01:22:14;102403.84;;;-2.51;100.00
36062;BME280;22123;52.412;20.970;2024-01-30T01:24:39;102392.53;;;-2.55;100.00
36062;BME280;22123;52.412;20.970;2024-01-30T01:27:05;102369.09;;;-2.67;100.00
36062;BME280;22123;52.412;20.970;2024-01-30T01:29:31;102408.19;;;-2.49;100.00
36062;BME280;22123;52.412;20.970;2024-01-30T01:31:58;102439.28;;;-2.27;100.00
36062;BME280;22123;52.412;20.970;2024-01-30T01:34:24;102382.16;;;-2.63;100.00
36062;BME280;22123;52.412;20.970;2024-01-30T01:36:50;102431.44;;;-2.30;100.00
36062;BME280;22123;52.412;20.970;2024-01-30T01:39:17;102440.31;;;-2.33;100.00
36062;BME280;22123;52.412;20.970;2024-01-30T01:41:43;102429.78;;;-2.34;100.00
36062;BME280;22123;52.412;20.970;2024-01-30T01:44:09;102395.22;;;-2.58;100.00
36062;BME280;22123;52.412;20.970;2024-01-30T01:46:35;102366.38;;;-2.64;100.00
36062;BME280;22123;52.412;20.970;2024-01-30T01:49:02;102420.84;;;-2.29;100.00
36062;BME280;22123;52.412;20.970;2024-01-30T01:51:29;102388.69;;;-2.43;100.00
36062;BME280;22123;52.412;20.970;2024-01-30T01:53:56;102388.59;;;-2.40;100.00
36062;BME280;22123;52.412;20.970;2024-01-30T01:56:23;102401.50;;;-2.29;100.00
36062;BME280;22123;52.412;20.970;2024-01-30T01:58:49;102383.25;;;-2.37;100.00
36062;BME280;22123;52.412;20.970;2024-01-30T02:01:19;102385.94;;;-2.38;100.00
36062;BME280;22123;52.412;20.970;2024-01-30T02:03:46;102386.63;;;-2.32;100.00
36062;BME280;22123;52.412;20.970;2024-01-30T02:06:16;102391.75;;;-2.25;100.00
36062;BME280;22123;52.412;20.970;2024-01-30T02:08:42;102390.00;;;-2.27;100.00
36062;BME280;22123;52.412;20.970;2024-01-30T02:11:08;102343.22;;;-2.53;100.00
36062;BME280;22123;52.412;20.970;2024-01-30T02:13:34;102347.44;;;-2.46;100.00
36062;BME280;22123;52.412;20.970;2024-01-30T02:16:00;102349.22;;;-2.46;100.00
36062;BME280;22123;52.412;20.970;2024-01-30T02:18:26;102349.25;;;-2.48;100.00
36062;BME280;22123;52.412;20.970;2024-01-30T02:20:54;102352.78;;;-2.49;100.00
36062;BME280;22123;52.412;20.970;2024-01-30T02:23:24;102347.53;;;-2.49;100.00
36062;BME280;22123;52.412;20.970;2024-01-30T02:25:50;102370.22;;;-2.43;100.00
36062;BME280;22123;52.412;20.970;2024-01-30T02:28:15;102401.34;;;-2.23;100.00
36062;BME280;22123;52.412;20.970;2024-01-30T02:30:45;102346.03;;;-2.59;100.00
36062;BME280;22123;52.412;20.970;2024-01-30T02:33:12;102366.88;;;-2.50;100.00
36062;BME280;22123;52.412;20.970;2024-01-30T02:35:38;102410.38;;;-2.32;100.00
36062;BME280;22123;52.412;20.970;2024-01-30T02:38:04;102417.25;;;-2.26;100.00
36062;BME280;22123;52.412;20.970;2024-01-30T02:40:31;102394.91;;;-2.46;100.00
36062;BME280;22123;52.412;20.970;2024-01-30T02:42:59;102387.97;;;-2.50;100.00
36062;BME280;22123;52.412;20.970;2024-01-30T02:45:25;102417.50;;;-2.35;100.00
36062;BME280;22123;52.412;20.970;2024-01-30T02:47:52;102309.34;;;-3.01;100.00
36062;BME280;22123;52.412;20.970;2024-01-30T02:50:18;102385.72;;;-2.65;100.00
36062;BME280;22123;52.412;20.970;2024-01-30T02:52:44;102366.72;;;-2.76;100.00
36062;BME280;22123;52.412;20.970;2024-01-30T02:55:10;102347.84;;;-2.94;100.00
36062;BME280;22123;52.412;20.970;2024-01-30T02:57:36;102380.88;;;-2.81;100.00
36062;BME280;22123;52.412;20.970;2024-01-30T03:00:02;102386.03;;;-2.76;100.00
36062;BME280;22123;52.412;20.970;2024-01-30T03:02:28;102418.19;;;-2.62;100.00
36062;BME280;22123;52.412;20.970;2024-01-30T03:04:54;102410.34;;;-2.65;100.00
36062;BME280;22123;52.412;20.970;2024-01-30T03:07:19;102425.28;;;-2.65;100.00
36062;BME280;22123;52.412;20.970;2024-01-30T03:09:45;102420.97;;;-2.68;100.00
36062;BME280;22123;52.412;20.970;2024-01-30T03:12:11;102376.81;;;-2.94;100.00
36062;BME280;22123;52.412;20.970;2024-01-30T03:14:37;102405.38;;;-2.77;100.00
36062;BME280;22123;52.412;20.970;2024-01-30T03:17:03;102417.59;;;-2.73;100.00
36062;BME280;22123;52.412;20.970;2024-01-30T03:19:29;102340.50;;;-3.19;100.00
36062;BME280;22123;52.412;20.970;2024-01-30T03:21:55;102342.28;;;-3.19;100.00
36062;BME280;22123;52.412;20.970;2024-01-30T03:24:21;102326.69;;;-3.27;100.00
36062;BME280;22123;52.412;20.970;2024-01-30T03:26:47;102394.38;;;-2.94;100.00
36062;BME280;22123;52.412;20.970;2024-01-30T03:29:13;102358.09;;;-3.19;100.00
36062;BME280;22123;52.412;20.970;2024-01-30T03:31:40;102378.88;;;-3.07;100.00
36062;BME280;22123;52.412;20.970;2024-01-30T03:34:05;102340.91;;;-3.34;100.00
36062;BME280;22123;52.412;20.970;2024-01-30T03:36:31;102332.19;;;-3.38;100.00
36062;BME280;22123;52.412;20.970;2024-01-30T03:38:57;102352.00;;;-3.21;100.00
36062;BME280;22123;52.412;20.970;2024-01-30T03:41:23;102365.00;;;-3.13;100.00
36062;BME280;22123;52.412;20.970;2024-01-30T03:43:50;102396.94;;;-2.91;100.00
36062;BME280;22123;52.412;20.970;2024-01-30T03:46:16;102398.69;;;-2.90;100.00
36062;BME280;22123;52.412;20.970;2024-01-30T03:48:42;102349.28;;;-3.18;100.00
36062;BME280;22123;52.412;20.970;2024-01-30T03:51:08;102381.28;;;-2.98;100.00
36062;BME280;22123;52.412;20.970;2024-01-30T03:53:34;102340.59;;;-3.22;100.00
36062;BME280;22123;52.412;20.970;2024-01-30T03:56:00;102368.22;;;-3.02;100.00
36062;BME280;22123;52.412;20.970;2024-01-30T03:58:26;102362.16;;;-3.06;100.00
36062;BME280;22123;52.412;20.970;2024-01-30T04:00:52;102358.53;;;-3.02;100.00
36062;BME280;22123;52.412;20.970;2024-01-30T04:03:18;102325.69;;;-3.23;100.00
36062;BME280;22123;52.412;20.970;2024-01-30T04:05:44;102349.94;;;-3.08;100.00
36062;BME280;22123;52.412;20.970;2024-01-30T04:08:10;102364.59;;;-2.97;100.00
36062;BME280;22123;52.412;20.970;2024-01-30T04:10:36;102335.09;;;-3.12;100.00
36062;BME280;22123;52.412;20.970;2024-01-30T04:13:02;102372.31;;;-2.90;100.00
36062;BME280;22123;52.412;20.970;2024-01-30T04:15:28;102336.66;;;-3.04;100.00
36062;BME280;22123;52.412;20.970;2024-01-30T04:17:54;102272.59;;;-3.42;100.00
36062;BME280;22123;52.412;20.970;2024-01-30T04:20:22;102368.59;;;-2.82;100.00
36062;BME280;22123;52.412;20.970;2024-01-30T04:22:48;102335.56;;;-2.95;100.00
36062;BME280;22123;52.412;20.970;2024-01-30T04:25:14;102394.44;;;-2.62;100.00
36062;BME280;22123;52.412;20.970;2024-01-30T04:27:40;102345.00;;;-2.86;100.00
36062;BME280;22123;52.412;20.970;2024-01-30T04:30:06;102354.59;;;-2.84;100.00
36062;BME280;22123;52.412;20.970;2024-01-30T04:32:32;102394.38;;;-2.58;100.00
36062;BME280;22123;52.412;20.970;2024-01-30T04:34:58;102357.91;;;-2.77;100.00
36062;BME280;22123;52.412;20.970;2024-01-30T04:37:24;102316.38;;;-3.02;100.00
36062;BME280;22123;52.412;20.970;2024-01-30T04:39:50;102323.25;;;-2.96;100.00
36062;BME280;22123;52.412;20.970;2024-01-30T04:42:17;102382.97;;;-2.59;100.00
36062;BME280;22123;52.412;20.970;2024-01-30T04:44:43;102337.03;;;-2.85;100.00
36062;BME280;22123;52.412;20.970;2024-01-30T04:47:08;102331.09;;;-2.93;100.00
36062;BME280;22123;52.412;20.970;2024-01-30T04:49:35;102324.03;;;-2.91;100.00
36062;BME280;22123;52.412;20.970;2024-01-30T04:52:01;102380.53;;;-2.68;100.00
36062;BME280;22123;52.412;20.970;2024-01-30T04:54:26;102342.28;;;-2.83;100.00
36062;BME280;22123;52.412;20.970;2024-01-30T04:56:52;102377.69;;;-2.59;100.00
36062;BME280;22123;52.412;20.970;2024-01-30T04:59:18;102383.81;;;-2.58;100.00
36062;BME280;22123;52.412;20.970;2024-01-30T05:01:44;102343.22;;;-2.86;100.00
36062;BME280;22123;52.412;20.970;2024-01-30T05:04:10;102338.78;;;-2.84;100.00
36062;BME280;22123;52.412;20.970;2024-01-30T05:06:36;102352.53;;;-2.72;100.00
36062;BME280;22123;52.412;20.970;2024-01-30T05:09:03;102388.16;;;-2.56;100.00
36062;BME280;22123;52.412;20.970;2024-01-30T05:11:29;102373.44;;;-2.65;100.00
36062;BME280;22123;52.412;20.970;2024-01-30T05:13:54;102335.25;;;-2.84;100.00
36062;BME280;22123;52.412;20.970;2024-01-30T05:16:20;102384.78;;;-2.63;100.00
36062;BME280;22123;52.412;20.970;2024-01-30T05:18:46;102354.69;;;-2.87;100.00
36062;BME280;22123;52.412;20.970;2024-01-30T05:21:12;102393.59;;;-2.62;100.00
36062;BME280;22123;52.412;20.970;2024-01-30T05:23:38;102343.34;;;-2.90;100.00
36062;BME280;22123;52.412;20.970;2024-01-30T05:26:06;102346.94;;;-2.94;100.00
36062;BME280;22123;52.412;20.970;2024-01-30T05:28:32;102395.56;;;-2.70;100.00
36062;BME280;22123;52.412;20.970;2024-01-30T05:30:58;102333.13;;;-3.04;100.00
36062;BME280;22123;52.412;20.970;2024-01-30T05:33:24;102351.47;;;-3.00;100.00
36062;BME280;22123;52.412;20.970;2024-01-30T05:35:50;102387.84;;;-2.78;100.00
36062;BME280;22123;52.412;20.970;2024-01-30T05:38:16;102342.09;;;-3.11;100.00
36062;BME280;22123;52.412;20.970;2024-01-30T05:40:42;102336.84;;;-3.13;100.00
36062;BME280;22123;52.412;20.970;2024-01-30T05:43:08;102349.88;;;-3.05;100.00
36062;BME280;22123;52.412;20.970;2024-01-30T05:45:34;102324.75;;;-3.20;100.00
36062;BME280;22123;52.412;20.970;2024-01-30T05:48:00;102313.66;;;-3.33;100.00
36062;BME280;22123;52.412;20.970;2024-01-30T05:50:25;102321.50;;;-3.30;100.00
36062;BME280;22123;52.412;20.970;2024-01-30T05:52:51;102343.00;;;-3.12;100.00
36062;BME280;22123;52.412;20.970;2024-01-30T05:55:17;102313.53;;;-3.28;100.00
36062;BME280;22123;52.412;20.970;2024-01-30T05:57:43;102318.81;;;-3.28;100.00
36062;BME280;22123;52.412;20.970;2024-01-30T06:00:09;102327.38;;;-3.20;100.00
36062;BME280;22123;52.412;20.970;2024-01-30T06:02:35;102366.25;;;-2.92;100.00
36062;BME280;22123;52.412;20.970;2024-01-30T06:05:01;102321.22;;;-3.19;100.00
36062;BME280;22123;52.412;20.970;2024-01-30T06:07:27;102335.03;;;-3.09;100.00
36062;BME280;22123;52.412;20.970;2024-01-30T06:09:53;102369.53;;;-2.84;100.00
36062;BME280;22123;52.412;20.970;2024-01-30T06:12:19;102328.78;;;-3.05;100.00
36062;BME280;22123;52.412;20.970;2024-01-30T06:14:45;102351.31;;;-2.93;100.00
36062;BME280;22123;52.412;20.970;2024-01-30T06:17:11;102331.41;;;-3.05;100.00
36062;BME280;22123;52.412;20.970;2024-01-30T06:19:37;102323.56;;;-3.07;100.00
36062;BME280;22123;52.412;20.970;2024-01-30T06:22:03;102344.34;;;-2.96;100.00
36062;BME280;22123;52.412;20.970;2024-01-30T06:24:29;102359.94;;;-2.87;100.00
36062;BME280;22123;52.412;20.970;2024-01-30T06:26:55;102348.66;;;-2.92;100.00
36062;BME280;22123;52.412;20.970;2024-01-30T06:29:20;102282.19;;;-3.39;100.00
36062;BME280;22123;52.412;20.970;2024-01-30T06:31:46;102346.09;;;-2.95;100.00
36062;BME280;22123;52.412;20.970;2024-01-30T06:34:12;102326.91;;;-3.02;100.00
36062;BME280;22123;52.412;20.970;2024-01-30T06:36:38;102344.28;;;-2.93;100.00
36062;BME280;22123;52.412;20.970;2024-01-30T06:39:04;102365.88;;;-2.78;100.00
36062;BME280;22123;52.412;20.970;2024-01-30T06:41:30;102386.66;;;-2.66;100.00
36062;BME280;22123;52.412;20.970;2024-01-30T06:43:56;102353.75;;;-2.86;100.00
36062;BME280;22123;52.412;20.970;2024-01-30T06:46:22;102309.53;;;-3.09;100.00
36062;BME280;22123;52.412;20.970;2024-01-30T06:48:48;102378.78;;;-2.68;100.00
36062;BME280;22123;52.412;20.970;2024-01-30T06:51:14;102322.44;;;-2.98;100.00
36062;BME280;22123;52.412;20.970;2024-01-30T06:53:40;102350.94;;;-2.78;100.00
36062;BME280;22123;52.412;20.970;2024-01-30T06:56:06;102319.66;;;-2.92;100.00
36062;BME280;22123;52.412;20.970;2024-01-30T06:58:32;102393.22;;;-2.48;100.00
36062;BME280;22123;52.412;20.970;2024-01-30T07:00:57;102357.56;;;-2.63;100.00
36062;BME280;22123;52.412;20.970;2024-01-30T07:03:23;102341.78;;;-2.65;100.00
36062;BME280;22123;52.412;20.970;2024-01-30T07:05:49;102349.28;;;-2.49;100.00
36062;BME280;22123;52.412;20.970;2024-01-30T07:08:16;102386.41;;;-2.24;100.00
36062;BME280;22123;52.412;20.970;2024-01-30T07:10:42;102393.16;;;-2.14;100.00
36062;BME280;22123;52.412;20.970;2024-01-30T07:13:08;102348.72;;;-2.29;100.00
36062;BME280;22123;52.412;20.970;2024-01-30T07:15:33;102387.41;;;-1.97;100.00
36062;BME280;22123;52.412;20.970;2024-01-30T07:17:59;102354.31;;;-2.08;100.00
36062;BME280;22123;52.412;20.970;2024-01-30T07:20:25;102343.78;;;-2.08;100.00
36062;BME280;22123;52.412;20.970;2024-01-30T07:22:51;102377.22;;;-1.79;100.00
36062;BME280;22123;52.412;20.970;2024-01-30T07:25:17;102346.63;;;-1.86;100.00
36062;BME280;22123;52.412;20.970;2024-01-30T07:27:43;102393.94;;;-1.49;100.00
36062;BME280;22123;52.412;20.970;2024-01-30T07:30:09;102388.44;;;-1.43;100.00
36062;BME280;22123;52.412;20.970;2024-01-30T07:32:35;102376.25;;;-1.47;100.00
36062;BME280;22123;52.412;20.970;2024-01-30T07:35:01;102370.69;;;-1.37;100.00
36062;BME280;22123;52.412;20.970;2024-01-30T07:37:26;102358.97;;;-1.29;100.00
36062;BME280;22123;52.412;20.970;2024-01-30T07:39:52;102290.44;;;-1.62;100.00
36062;BME280;22123;52.412;20.970;2024-01-30T07:42:18;102355.16;;;-1.20;100.00
36062;BME280;22123;52.412;20.970;2024-01-30T07:44:44;102313.09;;;-1.28;100.00
36062;BME280;22123;52.412;20.970;2024-01-30T07:47:11;102350.03;;;-0.98;100.00
36062;BME280;22123;52.412;20.970;2024-01-30T07:49:37;102345.69;;;-1.00;100.00
36062;BME280;22123;52.412;20.970;2024-01-30T07:52:03;102314.88;;;-1.01;100.00
36062;BME280;22123;52.412;20.970;2024-01-30T07:54:32;102344.91;;;-0.77;100.00
36062;BME280;22123;52.412;20.970;2024-01-30T07:56:58;102385.19;;;-0.44;100.00
36062;BME280;22123;52.412;20.970;2024-01-30T07:59:24;102374.63;;;-0.19;100.00
36062;BME280;22123;52.412;20.970;2024-01-30T08:01:50;102373.06;;;-0.01;100.00
36062;BME280;22123;52.412;20.970;2024-01-30T08:04:15;102324.88;;;-0.10;100.00
36062;BME280;22123;52.412;20.970;2024-01-30T08:06:41;102342.66;;;0.10;100.00
36062;BME280;22123;52.412;20.970;2024-01-30T08:09:07;102348.03;;;0.32;100.00
36062;BME280;22123;52.412;20.970;2024-01-30T08:11:33;102335.38;;;0.39;100.00
36062;BME280;22123;52.412;20.970;2024-01-30T08:13:59;102340.03;;;0.56;100.00
36062;BME280;22123;52.412;20.970;2024-01-30T08:16:25;102323.59;;;0.68;100.00
36062;BME280;22123;52.412;20.970;2024-01-30T08:18:51;102353.94;;;1.05;100.00
36062;BME280;22123;52.412;20.970;2024-01-30T08:21:16;102338.63;;;1.12;100.00
36062;BME280;22123;52.412;20.970;2024-01-30T08:23:42;102342.84;;;1.16;100.00
36062;BME280;22123;52.412;20.970;2024-01-30T08:26:08;102323.41;;;1.15;100.00
36062;BME280;22123;52.412;20.970;2024-01-30T08:28:34;102333.38;;;1.31;100.00
36062;BME280;22123;52.412;20.970;2024-01-30T08:31:00;102340.38;;;1.33;100.00
36062;BME280;22123;52.412;20.970;2024-01-30T08:33:26;102383.66;;;1.75;100.00
36062;BME280;22123;52.412;20.970;2024-01-30T08:35:52;102342.59;;;1.63;100.00
36062;BME280;22123;52.412;20.970;2024-01-30T08:38:18;102366.84;;;1.95;100.00
36062;BME280;22123;52.412;20.970;2024-01-30T08:40:44;102330.38;;;1.80;100.00
36062;BME280;22123;52.412;20.970;2024-01-30T08:43:10;102335.53;;;2.02;100.00
36062;BME280;22123;52.412;20.970;2024-01-30T08:45:36;102333.88;;;1.99;100.00
36062;BME280;22123;52.412;20.970;2024-01-30T08:48:01;102360.38;;;2.20;100.00
36062;BME280;22123;52.412;20.970;2024-01-30T08:50:27;102392.34;;;2.18;100.00
36062;BME280;22123;52.412;20.970;2024-01-30T08:52:53;102342.47;;;1.85;100.00
36062;BME280;22123;52.412;20.970;2024-01-30T08:55:19;102326.25;;;1.72;100.00
36062;BME280;22123;52.412;20.970;2024-01-30T08:57:45;102322.72;;;1.72;100.00
36062;BME280;22123;52.412;20.970;2024-01-30T09:00:11;102345.56;;;1.95;100.00
36062;BME280;22123;52.412;20.970;2024-01-30T09:02:37;102328.06;;;1.91;100.00
36062;BME280;22123;52.412;20.970;2024-01-30T09:05:03;102366.06;;;2.31;100.00
36062;BME280;22123;52.412;20.970;2024-01-30T09:07:29;102335.69;;;2.37;100.00
36062;BME280;22123;52.412;20.970;2024-01-30T09:09:55;102343.78;;;2.53;100.00
36062;BME280;22123;52.412;20.970;2024-01-30T09:12:21;102327.41;;;2.43;100.00
36062;BME280;22123;52.412;20.970;2024-01-30T09:14:47;102330.56;;;2.51;100.00
36062;BME280;22123;52.412;20.970;2024-01-30T09:17:13;102381.09;;;2.88;100.00
36062;BME280;22123;52.412;20.970;2024-01-30T09:19:40;102387.84;;;2.95;100.00
36062;BME280;22123;52.412;20.970;2024-01-30T09:22:06;102350.50;;;2.79;100.00
36062;BME280;22123;52.412;20.970;2024-01-30T09:24:32;102382.69;;;3.09;100.00
36062;BME280;22123;52.412;20.970;2024-01-30T09:26:58;102354.06;;;2.97;100.00
36062;BME280;22123;52.412;20.970;2024-01-30T09:29:24;102318.34;;;2.84;100.00
36062;BME280;22123;52.412;20.970;2024-01-30T09:31:50;102326.03;;;3.07;100.00
36062;BME280;22123;52.412;20.970;2024-01-30T09:34:15;102368.88;;;3.38;100.00
36062;BME280;22123;52.412;20.970;2024-01-30T09:36:44;102356.81;;;3.30;100.00
36062;BME280;22123;52.412;20.970;2024-01-30T09:39:09;102281.91;;;2.86;100.00
36062;BME280;22123;52.412;20.970;2024-01-30T09:41:49;102329.31;;;3.12;100.00
36062;BME280;22123;52.412;20.970;2024-01-30T09:44:20;102336.13;;;3.18;100.00
36062;BME280;22123;52.412;20.970;2024-01-30T09:46:47;102362.06;;;3.32;100.00
36062;BME280;22123;52.412;20.970;2024-01-30T09:49:13;102364.72;;;3.32;100.00
36062;BME280;22123;52.412;20.970;2024-01-30T09:51:39;102368.06;;;3.36;100.00
36062;BME280;22123;52.412;20.970;2024-01-30T09:54:08;102335.44;;;3.32;100.00
36062;BME280;22123;52.412;20.970;2024-01-30T09:56:34;102326.66;;;3.30;100.00
36062;BME280;22123;52.412;20.970;2024-01-30T09:59:00;102330.56;;;3.40;100.00
36062;BME280;22123;52.412;20.970;2024-01-30T10:01:26;102302.69;;;3.30;100.00
36062;BME280;22123;52.412;20.970;2024-01-30T10:03:51;102310.59;;;3.49;100.00
36062;BME280;22123;52.412;20.970;2024-01-30T10:06:18;102312.31;;;3.50;100.00
36062;BME280;22123;52.412;20.970;2024-01-30T10:08:45;102350.66;;;3.81;100.00
36062;BME280;22123;52.412;20.970;2024-01-30T10:11:16;102329.72;;;3.73;100.00
36062;BME280;22123;52.412;20.970;2024-01-30T10:13:54;102338.41;;;4.10;100.00
36062;BME280;22123;52.412;20.970;2024-01-30T10:16:20;102293.56;;;4.01;100.00
36062;BME280;22123;52.412;20.970;2024-01-30T10:18:46;102287.06;;;4.07;100.00
36062;BME280;22123;52.412;20.970;2024-01-30T10:21:12;102302.88;;;4.26;100.00
36062;BME280;22123;52.412;20.970;2024-01-30T10:23:38;102319.66;;;4.44;100.00
36062;BME280;22123;52.412;20.970;2024-01-30T10:26:04;102291.97;;;4.30;100.00
36062;BME280;22123;52.412;20.970;2024-01-30T10:28:30;102313.69;;;4.55;100.00
36062;BME280;22123;52.412;20.970;2024-01-30T10:30:59;102309.06;;;4.58;100.00
36062;BME280;22123;52.412;20.970;2024-01-30T10:33:26;102280.09;;;4.52;100.00
36062;BME280;22123;52.412;20.970;2024-01-30T10:36:11;102316.69;;;4.80;100.00
36062;BME280;22123;52.412;20.970;2024-01-30T10:38:42;102261.63;;;4.63;100.00
36062;BME280;22123;52.412;20.970;2024-01-30T10:41:08;102241.59;;;4.56;100.00
36062;BME280;22123;52.412;20.970;2024-01-30T10:43:40;102207.84;;;4.41;100.00
36062;BME280;22123;52.412;20.970;2024-01-30T10:46:20;102297.69;;;5.01;100.00
36062;BME280;22123;52.412;20.970;2024-01-30T10:49:19;102289.34;;;5.07;100.00
36062;BME280;22123;52.412;20.970;2024-01-30T10:51:38;102269.19;;;5.01;100.00
36062;BME280;22123;52.412;20.970;2024-01-30T10:54:05;102237.78;;;4.91;100.00
36062;BME280;22123;52.412;20.970;2024-01-30T10:56:32;102241.53;;;5.02;100.00
36062;BME280;22123;52.412;20.970;2024-01-30T10:58:58;102259.31;;;5.32;100.00
36062;BME280;22123;52.412;20.970;2024-01-30T11:01:24;102278.69;;;5.50;100.00
36062;BME280;22123;52.412;20.970;2024-01-30T11:03:52;102250.06;;;5.38;100.00
36062;BME280;22123;52.412;20.970;2024-01-30T11:06:18;102224.22;;;5.38;100.00
36062;BME280;22123;52.412;20.970;2024-01-30T11:08:45;102233.94;;;5.54;100.00
36062;BME280;22123;52.412;20.970;2024-01-30T11:11:11;102241.38;;;5.63;100.00
36062;BME280;22123;52.412;20.970;2024-01-30T11:13:37;102263.88;;;5.88;100.00
36062;BME280;22123;52.412;20.970;2024-01-30T11:16:06;102228.59;;;5.83;100.00
36062;BME280;22123;52.412;20.970;2024-01-30T11:18:33;102254.41;;;5.97;100.00
36062;BME280;22123;52.412;20.970;2024-01-30T11:21:01;102248.19;;;6.25;100.00
36062;BME280;22123;52.412;20.970;2024-01-30T11:23:27;102220.91;;;6.33;100.00
36062;BME280;22123;52.412;20.970;2024-01-30T11:25:53;102261.94;;;6.73;100.00
36062;BME280;22123;52.412;20.970;2024-01-30T11:28:21;102226.53;;;6.95;100.00
36062;BME280;22123;52.412;20.970;2024-01-30T11:30:49;102205.22;;;7.32;100.00
36062;BME280;22123;52.412;20.970;2024-01-30T11:33:27;102200.16;;;7.66;100.00
36062;BME280;22123;52.412;20.970;2024-01-30T11:35:53;102203.63;;;8.17;100.00
36062;BME280;22123;52.412;20.970;2024-01-30T11:38:19;102202.28;;;8.71;100.00
36062;BME280;22123;52.412;20.970;2024-01-30T11:40:45;102199.91;;;9.92;100.00
36062;BME280;22123;52.412;20.970;2024-01-30T11:43:11;102225.19;;;10.99;100.00
36062;BME280;22123;52.412;20.970;2024-01-30T11:45:37;102171.72;;;11.56;100.00
36062;BME280;22123;52.412;20.970;2024-01-30T11:48:03;102180.94;;;12.23;100.00
36062;BME280;22123;52.412;20.970;2024-01-30T11:50:30;102182.50;;;12.45;100.00
36062;BME280;22123;52.412;20.970;2024-01-30T11:52:57;102177.94;;;12.75;100.00
36062;BME280;22123;52.412;20.970;2024-01-30T11:55:23;102209.53;;;12.75;100.00
36062;BME280;22123;52.412;20.970;2024-01-30T11:57:49;102203.81;;;12.68;100.00
36062;BME280;22123;52.412;20.970;2024-01-30T12:00:16;102207.25;;;11.71;100.00
36062;BME280;22123;52.412;20.970;2024-01-30T12:02:43;102184.44;;;11.13;100.00
36062;BME280;22123;52.412;20.970;2024-01-30T12:05:12;102154.50;;;10.64;100.00
36062;BME280;22123;52.412;20.970;2024-01-30T12:07:38;102202.34;;;10.28;100.00
36062;BME280;22123;52.412;20.970;2024-01-30T12:10:04;102170.06;;;9.84;100.00
36062;BME280;22123;52.412;20.970;2024-01-30T12:12:30;102209.25;;;9.54;100.00
36062;BME280;22123;52.412;20.970;2024-01-30T12:14:56;102150.56;;;8.92;100.00
36062;BME280;22123;52.412;20.970;2024-01-30T12:17:30;102158.75;;;8.90;100.00
36062;BME280;22123;52.412;20.970;2024-01-30T12:20:07;102171.97;;;9.27;100.00
36062;BME280;22123;52.412;20.970;2024-01-30T12:22:37;102157.28;;;9.54;100.00
36062;BME280;22123;52.412;20.970;2024-01-30T12:25:14;102205.28;;;9.81;98.45
36062;BME280;22123;52.412;20.970;2024-01-30T12:27:43;102193.13;;;9.43;92.30
36062;BME280;22123;52.412;20.970;2024-01-30T12:30:11;102198.94;;;9.94;93.27